Terminal Aerodrome Forecast
Issued by NWS

Home | Current Version | Previous Version | Graphics & Text | Print | Product List | Glossary On
Versions: 1 2 3 4 5 6 7 8 9 10 11 12 13
803
FTUS42 KMHX 232322 AAC
TAFISO
TAF AMD
KISO 232322Z 2323/2424 36010KT P6SM SCT070
     FM240200 00000KT P6SM SCT070
     FM241300 26006KT P6SM SCT150
      AMD LTD TO CLD VIS AND WIND=

USA.gov is the U.S. government's official web portal to all federal, state and local government web resources and services.